KSIK/SIK METAR and TAF weather

Enter ICAO airport designator
Station Type Date Time Source
KSIK METAR 2022/01/26 08:55 UTC NOAA

KSIK 260855Z AUTO 36006KT 10SM CLR M07/M12 A3050 RMK AO2 TSNO


Station Type Date Time Source
KSIK Decoded METAR 2022/01/26 08:55 UTC NOAA

Station name not available
Jan 26, 2022 - 03:55 AM EST / 2022.01.26 0855 UTC
Wind: from the N (360 degrees) at 7 MPH (6 KT):0
Visibility: 10 mile(s):0
Sky conditions: clear
Temperature: 19 F (-7 C)
Windchill: 10 F (-12 C):1
Dew Point: 10 F (-12 C)
Relative Humidity: 67%
Pressure (altimeter): 30.5 in. Hg (1032 hPa)
ob: KSIK 260855Z AUTO 36006KT 10SM CLR M07/M12 A3050 RMK AO2 TSNO
cycle: 9

Station Type Date Time Source
KSIK TAF UTC NOAA

Error!

Example: see airport list